sensor_id;sensor_type;location;lat;lon;timestamp;P1;durP1;ratioP1;P2;durP2;ratioP2
77738;SDS011;66904;59.926;30.404;2023-01-28T00:01:57;0.10;;;0.10;;
77738;SDS011;66904;59.926;30.404;2023-01-28T00:06:57;1.60;;;0.20;;
77738;SDS011;66904;59.926;30.404;2023-01-28T00:12:13;0.63;;;0.20;;
77738;SDS011;66904;59.926;30.404;2023-01-28T00:17:51;0.30;;;0.17;;
77738;SDS011;66904;59.926;30.404;2023-01-28T00:22:52;1.55;;;0.30;;
77738;SDS011;66904;59.926;30.404;2023-01-28T00:28:04;0.50;;;0.20;;
77738;SDS011;66904;59.926;30.404;2023-01-28T00:33:36;0.30;;;0.28;;
77738;SDS011;66904;59.926;30.404;2023-01-28T00:38:36;0.43;;;0.20;;
77738;SDS011;66904;59.926;30.404;2023-01-28T00:43:37;0.40;;;0.40;;
77738;SDS011;66904;59.926;30.404;2023-01-28T00:48:38;0.45;;;0.30;;
77738;SDS011;66904;59.926;30.404;2023-01-28T00:53:40;0.57;;;0.22;;
77738;SDS011;66904;59.926;30.404;2023-01-28T00:58:59;0.40;;;0.20;;
77738;SDS011;66904;59.926;30.404;2023-01-28T01:03:59;1.08;;;0.40;;
77738;SDS011;66904;59.926;30.404;2023-01-28T01:09:15;0.50;;;0.20;;
77738;SDS011;66904;59.926;30.404;2023-01-28T01:20:40;0.35;;;0.25;;
77738;SDS011;66904;59.926;30.404;2023-01-28T01:31:40;0.55;;;0.40;;
77738;SDS011;66904;59.926;30.404;2023-01-28T01:41:43;0.47;;;0.30;;
77738;SDS011;66904;59.926;30.404;2023-01-28T01:46:47;0.50;;;0.30;;
77738;SDS011;66904;59.926;30.404;2023-01-28T01:51:55;0.40;;;0.20;;
77738;SDS011;66904;59.926;30.404;2023-01-28T02:14:56;0.60;;;0.30;;
77738;SDS011;66904;59.926;30.404;2023-01-28T02:37:51;0.35;;;0.20;;
77738;SDS011;66904;59.926;30.404;2023-01-28T02:49:03;0.63;;;0.25;;
77738;SDS011;66904;59.926;30.404;2023-01-28T03:05:36;0.45;;;0.40;;
77738;SDS011;66904;59.926;30.404;2023-01-28T03:10:41;0.30;;;0.30;;
77738;SDS011;66904;59.926;30.404;2023-01-28T03:15:43;0.52;;;0.50;;
77738;SDS011;66904;59.926;30.404;2023-01-28T03:21:06;0.52;;;0.30;;
77738;SDS011;66904;59.926;30.404;2023-01-28T03:26:41;0.60;;;0.30;;
77738;SDS011;66904;59.926;30.404;2023-01-28T03:32:16;1.52;;;0.40;;
77738;SDS011;66904;59.926;30.404;2023-01-28T03:37:41;0.65;;;0.40;;
77738;SDS011;66904;59.926;30.404;2023-01-28T03:42:41;0.50;;;0.28;;
77738;SDS011;66904;59.926;30.404;2023-01-28T03:47:53;0.75;;;0.38;;
77738;SDS011;66904;59.926;30.404;2023-01-28T03:52:53;0.50;;;0.30;;
77738;SDS011;66904;59.926;30.404;2023-01-28T03:58:03;0.80;;;0.40;;
77738;SDS011;66904;59.926;30.404;2023-01-28T04:09:45;0.60;;;0.35;;
77738;SDS011;66904;59.926;30.404;2023-01-28T04:20:54;0.73;;;0.40;;
77738;SDS011;66904;59.926;30.404;2023-01-28T04:25:55;0.77;;;0.40;;
77738;SDS011;66904;59.926;30.404;2023-01-28T04:31:04;0.63;;;0.52;;
77738;SDS011;66904;59.926;30.404;2023-01-28T04:48:07;1.40;;;0.90;;
77738;SDS011;66904;59.926;30.404;2023-01-28T04:53:07;1.15;;;0.60;;
77738;SDS011;66904;59.926;30.404;2023-01-28T04:58:09;0.95;;;0.50;;
77738;SDS011;66904;59.926;30.404;2023-01-28T05:03:12;1.30;;;0.70;;
77738;SDS011;66904;59.926;30.404;2023-01-28T05:08:13;1.60;;;0.80;;
77738;SDS011;66904;59.926;30.404;2023-01-28T05:13:16;2.13;;;0.60;;
77738;SDS011;66904;59.926;30.404;2023-01-28T05:18:19;1.70;;;1.00;;
77738;SDS011;66904;59.926;30.404;2023-01-28T05:23:20;0.98;;;0.50;;
77738;SDS011;66904;59.926;30.404;2023-01-28T05:28:20;1.55;;;0.73;;
77738;SDS011;66904;59.926;30.404;2023-01-28T05:33:21;1.10;;;0.70;;
77738;SDS011;66904;59.926;30.404;2023-01-28T05:38:30;1.30;;;0.68;;
77738;SDS011;66904;59.926;30.404;2023-01-28T05:43:30;1.85;;;0.55;;
77738;SDS011;66904;59.926;30.404;2023-01-28T05:48:31;1.00;;;0.50;;
77738;SDS011;66904;59.926;30.404;2023-01-28T05:53:50;1.20;;;0.70;;
77738;SDS011;66904;59.926;30.404;2023-01-28T06:16:55;1.25;;;0.40;;
77738;SDS011;66904;59.926;30.404;2023-01-28T06:21:55;2.38;;;0.65;;
77738;SDS011;66904;59.926;30.404;2023-01-28T06:26:56;1.10;;;0.47;;
77738;SDS011;66904;59.926;30.404;2023-01-28T06:31:56;0.82;;;0.50;;
77738;SDS011;66904;59.926;30.404;2023-01-28T06:36:57;0.55;;;0.22;;
77738;SDS011;66904;59.926;30.404;2023-01-28T06:41:57;0.98;;;0.40;;
77738;SDS011;66904;59.926;30.404;2023-01-28T06:46:58;0.90;;;0.40;;
77738;SDS011;66904;59.926;30.404;2023-01-28T06:51:59;0.68;;;0.43;;
77738;SDS011;66904;59.926;30.404;2023-01-28T06:56:59;2.03;;;0.50;;
77738;SDS011;66904;59.926;30.404;2023-01-28T07:02:00;2.38;;;0.63;;
77738;SDS011;66904;59.926;30.404;2023-01-28T07:07:00;3.55;;;0.75;;
77738;SDS011;66904;59.926;30.404;2023-01-28T07:12:01;0.95;;;0.77;;
77738;SDS011;66904;59.926;30.404;2023-01-28T07:17:04;1.50;;;0.90;;
77738;SDS011;66904;59.926;30.404;2023-01-28T07:22:04;1.02;;;0.55;;
77738;SDS011;66904;59.926;30.404;2023-01-28T07:27:05;2.08;;;0.50;;
77738;SDS011;66904;59.926;30.404;2023-01-28T07:32:05;3.65;;;0.80;;
77738;SDS011;66904;59.926;30.404;2023-01-28T07:37:06;2.90;;;0.70;;
77738;SDS011;66904;59.926;30.404;2023-01-28T07:42:06;4.70;;;0.98;;
77738;SDS011;66904;59.926;30.404;2023-01-28T07:47:07;3.63;;;1.33;;
77738;SDS011;66904;59.926;30.404;2023-01-28T07:52:08;2.15;;;0.70;;
77738;SDS011;66904;59.926;30.404;2023-01-28T07:57:09;3.08;;;0.75;;
77738;SDS011;66904;59.926;30.404;2023-01-28T08:02:10;3.00;;;0.70;;
77738;SDS011;66904;59.926;30.404;2023-01-28T08:07:12;3.20;;;0.68;;
77738;SDS011;66904;59.926;30.404;2023-01-28T08:12:13;4.30;;;1.02;;
77738;SDS011;66904;59.926;30.404;2023-01-28T08:17:13;3.10;;;0.60;;
77738;SDS011;66904;59.926;30.404;2023-01-28T08:22:13;2.67;;;0.63;;
77738;SDS011;66904;59.926;30.404;2023-01-28T08:27:14;2.97;;;0.70;;
77738;SDS011;66904;59.926;30.404;2023-01-28T08:32:15;1.33;;;0.50;;
77738;SDS011;66904;59.926;30.404;2023-01-28T08:37:18;3.33;;;0.52;;
77738;SDS011;66904;59.926;30.404;2023-01-28T08:42:18;1.05;;;0.40;;
77738;SDS011;66904;59.926;30.404;2023-01-28T08:47:19;2.13;;;0.50;;
77738;SDS011;66904;59.926;30.404;2023-01-28T08:52:20;1.05;;;0.40;;
77738;SDS011;66904;59.926;30.404;2023-01-28T08:57:20;1.50;;;0.50;;
77738;SDS011;66904;59.926;30.404;2023-01-28T09:02:21;2.05;;;0.60;;
77738;SDS011;66904;59.926;30.404;2023-01-28T09:07:22;2.42;;;0.63;;
77738;SDS011;66904;59.926;30.404;2023-01-28T09:12:22;3.72;;;3.47;;
77738;SDS011;66904;59.926;30.404;2023-01-28T09:17:23;3.33;;;2.13;;
77738;SDS011;66904;59.926;30.404;2023-01-28T09:22:23;7.43;;;3.72;;
77738;SDS011;66904;59.926;30.404;2023-01-28T09:27:24;3.88;;;1.90;;
77738;SDS011;66904;59.926;30.404;2023-01-28T09:32:24;2.35;;;1.20;;
77738;SDS011;66904;59.926;30.404;2023-01-28T09:37:25;1.60;;;1.00;;
77738;SDS011;66904;59.926;30.404;2023-01-28T09:47:47;1.73;;;0.80;;
77738;SDS011;66904;59.926;30.404;2023-01-28T09:52:50;1.98;;;0.73;;
77738;SDS011;66904;59.926;30.404;2023-01-28T09:57:54;1.88;;;0.93;;
77738;SDS011;66904;59.926;30.404;2023-01-28T10:14:03;1.30;;;0.80;;
77738;SDS011;66904;59.926;30.404;2023-01-28T10:19:21;1.70;;;0.93;;
77738;SDS011;66904;59.926;30.404;2023-01-28T10:24:36;1.30;;;0.60;;
77738;SDS011;66904;59.926;30.404;2023-01-28T10:29:43;1.45;;;1.00;;
77738;SDS011;66904;59.926;30.404;2023-01-28T10:34:49;3.33;;;0.80;;
77738;SDS011;66904;59.926;30.404;2023-01-28T10:39:52;1.42;;;0.68;;
77738;SDS011;66904;59.926;30.404;2023-01-28T10:45:40;1.63;;;0.70;;
77738;SDS011;66904;59.926;30.404;2023-01-28T10:50:23;1.42;;;0.63;;
77738;SDS011;66904;59.926;30.404;2023-01-28T10:55:27;1.83;;;0.90;;
77738;SDS011;66904;59.926;30.404;2023-01-28T11:00:37;1.23;;;0.80;;
77738;SDS011;66904;59.926;30.404;2023-01-28T11:05:48;1.10;;;0.50;;
77738;SDS011;66904;59.926;30.404;2023-01-28T11:10:50;0.82;;;0.40;;
77738;SDS011;66904;59.926;30.404;2023-01-28T11:16:14;2.88;;;0.65;;
77738;SDS011;66904;59.926;30.404;2023-01-28T11:21:23;0.93;;;0.50;;
77738;SDS011;66904;59.926;30.404;2023-01-28T11:26:27;0.98;;;0.52;;
77738;SDS011;66904;59.926;30.404;2023-01-28T11:31:36;1.13;;;0.68;;
77738;SDS011;66904;59.926;30.404;2023-01-28T11:36:48;0.82;;;0.40;;
77738;SDS011;66904;59.926;30.404;2023-01-28T11:41:49;2.53;;;0.80;;
77738;SDS011;66904;59.926;30.404;2023-01-28T12:08:27;1.88;;;0.50;;
77738;SDS011;66904;59.926;30.404;2023-01-28T12:30:06;8.65;;;1.30;;
77738;SDS011;66904;59.926;30.404;2023-01-28T12:51:17;3.80;;;0.60;;
77738;SDS011;66904;59.926;30.404;2023-01-28T12:56:24;1.25;;;0.52;;
77738;SDS011;66904;59.926;30.404;2023-01-28T13:01:36;2.53;;;0.52;;
77738;SDS011;66904;59.926;30.404;2023-01-28T13:07:17;1.98;;;0.50;;
77738;SDS011;66904;59.926;30.404;2023-01-28T13:12:13;3.20;;;0.60;;
77738;SDS011;66904;59.926;30.404;2023-01-28T13:17:28;1.20;;;0.57;;
77738;SDS011;66904;59.926;30.404;2023-01-28T13:22:33;2.35;;;0.43;;
77738;SDS011;66904;59.926;30.404;2023-01-28T13:27:35;1.40;;;0.68;;
77738;SDS011;66904;59.926;30.404;2023-01-28T13:32:35;1.65;;;0.50;;
77738;SDS011;66904;59.926;30.404;2023-01-28T13:37:42;1.00;;;0.50;;
77738;SDS011;66904;59.926;30.404;2023-01-28T13:42:44;2.08;;;0.70;;
77738;SDS011;66904;59.926;30.404;2023-01-28T13:53:16;1.52;;;0.93;;
77738;SDS011;66904;59.926;30.404;2023-01-28T14:20:27;3.00;;;0.70;;
77738;SDS011;66904;59.926;30.404;2023-01-28T14:25:40;4.82;;;0.80;;
77738;SDS011;66904;59.926;30.404;2023-01-28T14:30:50;3.65;;;0.80;;
77738;SDS011;66904;59.926;30.404;2023-01-28T14:35:53;2.05;;;0.80;;
77738;SDS011;66904;59.926;30.404;2023-01-28T14:40:55;1.80;;;0.80;;
77738;SDS011;66904;59.926;30.404;2023-01-28T14:46:04;2.63;;;0.90;;
77738;SDS011;66904;59.926;30.404;2023-01-28T14:51:32;3.75;;;0.68;;
77738;SDS011;66904;59.926;30.404;2023-01-28T14:56:43;1.50;;;0.70;;
77738;SDS011;66904;59.926;30.404;2023-01-28T15:01:47;1.63;;;1.25;;
77738;SDS011;66904;59.926;30.404;2023-01-28T15:06:48;2.50;;;0.50;;
77738;SDS011;66904;59.926;30.404;2023-01-28T15:11:51;1.38;;;0.50;;
77738;SDS011;66904;59.926;30.404;2023-01-28T15:16:56;1.17;;;0.70;;
77738;SDS011;66904;59.926;30.404;2023-01-28T15:21:58;1.15;;;0.95;;
77738;SDS011;66904;59.926;30.404;2023-01-28T15:27:01;2.03;;;0.50;;
77738;SDS011;66904;59.926;30.404;2023-01-28T15:32:03;1.30;;;0.70;;
77738;SDS011;66904;59.926;30.404;2023-01-28T15:37:04;0.68;;;0.40;;
77738;SDS011;66904;59.926;30.404;2023-01-28T15:42:05;1.15;;;0.50;;
77738;SDS011;66904;59.926;30.404;2023-01-28T15:47:22;1.67;;;0.55;;
77738;SDS011;66904;59.926;30.404;2023-01-28T15:52:29;2.42;;;0.60;;
77738;SDS011;66904;59.926;30.404;2023-01-28T15:57:34;1.85;;;0.55;;
77738;SDS011;66904;59.926;30.404;2023-01-28T16:02:40;1.23;;;0.40;;
77738;SDS011;66904;59.926;30.404;2023-01-28T16:07:43;1.30;;;0.60;;
77738;SDS011;66904;59.926;30.404;2023-01-28T16:12:52;1.13;;;0.65;;
77738;SDS011;66904;59.926;30.404;2023-01-28T16:18:59;2.25;;;0.70;;
77738;SDS011;66904;59.926;30.404;2023-01-28T16:23:48;3.72;;;0.70;;
77738;SDS011;66904;59.926;30.404;2023-01-28T16:29:13;2.30;;;0.70;;
77738;SDS011;66904;59.926;30.404;2023-01-28T16:34:15;1.98;;;0.40;;
77738;SDS011;66904;59.926;30.404;2023-01-28T16:39:16;0.65;;;0.32;;
77738;SDS011;66904;59.926;30.404;2023-01-28T16:44:17;2.92;;;0.55;;
77738;SDS011;66904;59.926;30.404;2023-01-28T16:49:17;2.63;;;0.63;;
77738;SDS011;66904;59.926;30.404;2023-01-28T16:54:18;0.65;;;0.40;;
77738;SDS011;66904;59.926;30.404;2023-01-28T16:59:18;0.45;;;0.32;;
77738;SDS011;66904;59.926;30.404;2023-01-28T17:04:19;0.75;;;0.30;;
77738;SDS011;66904;59.926;30.404;2023-01-28T17:09:19;1.58;;;0.40;;
77738;SDS011;66904;59.926;30.404;2023-01-28T17:14:39;3.00;;;0.50;;
77738;SDS011;66904;59.926;30.404;2023-01-28T17:19:52;1.05;;;0.50;;
77738;SDS011;66904;59.926;30.404;2023-01-28T17:24:53;0.90;;;0.40;;
77738;SDS011;66904;59.926;30.404;2023-01-28T17:29:53;1.73;;;0.60;;
77738;SDS011;66904;59.926;30.404;2023-01-28T17:34:54;1.48;;;0.50;;
77738;SDS011;66904;59.926;30.404;2023-01-28T17:39:54;1.08;;;0.40;;
77738;SDS011;66904;59.926;30.404;2023-01-28T17:44:55;2.40;;;0.52;;
77738;SDS011;66904;59.926;30.404;2023-01-28T17:49:56;1.30;;;0.40;;
77738;SDS011;66904;59.926;30.404;2023-01-28T17:54:57;1.15;;;0.52;;
77738;SDS011;66904;59.926;30.404;2023-01-28T17:59:57;0.98;;;0.30;;
77738;SDS011;66904;59.926;30.404;2023-01-28T18:04:58;1.85;;;0.63;;
77738;SDS011;66904;59.926;30.404;2023-01-28T18:09:58;1.00;;;0.60;;
77738;SDS011;66904;59.926;30.404;2023-01-28T18:14:59;1.50;;;0.25;;
77738;SDS011;66904;59.926;30.404;2023-01-28T18:19:59;2.03;;;0.43;;
77738;SDS011;66904;59.926;30.404;2023-01-28T18:25:00;1.83;;;0.55;;
77738;SDS011;66904;59.926;30.404;2023-01-28T18:30:01;2.03;;;0.50;;
77738;SDS011;66904;59.926;30.404;2023-01-28T18:35:01;2.30;;;0.50;;
77738;SDS011;66904;59.926;30.404;2023-01-28T18:40:03;0.60;;;0.40;;
77738;SDS011;66904;59.926;30.404;2023-01-28T18:45:05;1.40;;;0.35;;
77738;SDS011;66904;59.926;30.404;2023-01-28T18:50:05;1.17;;;0.40;;
77738;SDS011;66904;59.926;30.404;2023-01-28T18:55:07;0.90;;;0.50;;
77738;SDS011;66904;59.926;30.404;2023-01-28T19:00:08;0.90;;;0.50;;
77738;SDS011;66904;59.926;30.404;2023-01-28T19:05:09;0.63;;;0.38;;
77738;SDS011;66904;59.926;30.404;2023-01-28T19:10:10;0.32;;;0.20;;
77738;SDS011;66904;59.926;30.404;2023-01-28T19:15:10;0.35;;;0.20;;
77738;SDS011;66904;59.926;30.404;2023-01-28T19:20:12;0.30;;;0.10;;
77738;SDS011;66904;59.926;30.404;2023-01-28T19:25:12;1.63;;;0.47;;
77738;SDS011;66904;59.926;30.404;2023-01-28T19:30:13;0.52;;;0.30;;
77738;SDS011;66904;59.926;30.404;2023-01-28T19:35:13;0.70;;;0.28;;
77738;SDS011;66904;59.926;30.404;2023-01-28T19:40:14;0.40;;;0.30;;
77738;SDS011;66904;59.926;30.404;2023-01-28T19:45:15;0.50;;;0.40;;
77738;SDS011;66904;59.926;30.404;2023-01-28T19:50:16;0.32;;;0.20;;
77738;SDS011;66904;59.926;30.404;2023-01-28T19:55:16;0.50;;;0.30;;
77738;SDS011;66904;59.926;30.404;2023-01-28T20:00:17;0.80;;;0.30;;
77738;SDS011;66904;59.926;30.404;2023-01-28T20:05:18;0.70;;;0.50;;
77738;SDS011;66904;59.926;30.404;2023-01-28T20:10:18;1.23;;;0.40;;
77738;SDS011;66904;59.926;30.404;2023-01-28T20:15:20;0.82;;;0.40;;
77738;SDS011;66904;59.926;30.404;2023-01-28T20:20:20;1.40;;;0.25;;
77738;SDS011;66904;59.926;30.404;2023-01-28T20:25:21;0.50;;;0.20;;
77738;SDS011;66904;59.926;30.404;2023-01-28T20:30:24;0.60;;;0.30;;
77738;SDS011;66904;59.926;30.404;2023-01-28T20:35:26;1.90;;;0.30;;
77738;SDS011;66904;59.926;30.404;2023-01-28T20:40:26;0.60;;;0.30;;
77738;SDS011;66904;59.926;30.404;2023-01-28T20:45:30;1.30;;;0.40;;
77738;SDS011;66904;59.926;30.404;2023-01-28T20:50:30;1.05;;;0.20;;
77738;SDS011;66904;59.926;30.404;2023-01-28T20:55:31;0.77;;;0.30;;
77738;SDS011;66904;59.926;30.404;2023-01-28T21:00:31;0.38;;;0.30;;
77738;SDS011;66904;59.926;30.404;2023-01-28T21:05:32;0.52;;;0.25;;
77738;SDS011;66904;59.926;30.404;2023-01-28T21:10:32;0.47;;;0.20;;
77738;SDS011;66904;59.926;30.404;2023-01-28T21:15:34;0.93;;;0.40;;
77738;SDS011;66904;59.926;30.404;2023-01-28T21:20:35;0.60;;;0.30;;
77738;SDS011;66904;59.926;30.404;2023-01-28T21:25:35;1.83;;;0.63;;
77738;SDS011;66904;59.926;30.404;2023-01-28T21:30:36;2.65;;;0.70;;
77738;SDS011;66904;59.926;30.404;2023-01-28T21:35:38;1.33;;;0.52;;
77738;SDS011;66904;59.926;30.404;2023-01-28T21:40:39;0.60;;;0.30;;
77738;SDS011;66904;59.926;30.404;2023-01-28T21:45:40;0.25;;;0.20;;
77738;SDS011;66904;59.926;30.404;2023-01-28T21:50:40;0.88;;;0.40;;
77738;SDS011;66904;59.926;30.404;2023-01-28T21:55:59;1.05;;;0.40;;
77738;SDS011;66904;59.926;30.404;2023-01-28T22:01:06;0.65;;;0.30;;
77738;SDS011;66904;59.926;30.404;2023-01-28T22:06:07;0.75;;;0.30;;
77738;SDS011;66904;59.926;30.404;2023-01-28T22:11:08;1.10;;;0.40;;
77738;SDS011;66904;59.926;30.404;2023-01-28T22:16:09;0.95;;;0.30;;
77738;SDS011;66904;59.926;30.404;2023-01-28T22:21:10;0.57;;;0.30;;
77738;SDS011;66904;59.926;30.404;2023-01-28T22:49:01;0.60;;;0.60;;
77738;SDS011;66904;59.926;30.404;2023-01-28T22:54:02;0.70;;;0.30;;
77738;SDS011;66904;59.926;30.404;2023-01-28T22:59:03;0.60;;;0.30;;
77738;SDS011;66904;59.926;30.404;2023-01-28T23:04:03;0.52;;;0.30;;
77738;SDS011;66904;59.926;30.404;2023-01-28T23:09:04;0.75;;;0.32;;
77738;SDS011;66904;59.926;30.404;2023-01-28T23:14:16;0.45;;;0.10;;
77738;SDS011;66904;59.926;30.404;2023-01-28T23:19:35;0.40;;;0.40;;
77738;SDS011;66904;59.926;30.404;2023-01-28T23:25:26;0.25;;;0.20;;
77738;SDS011;66904;59.926;30.404;2023-01-28T23:47:28;0.25;;;0.20;;
77738;SDS011;66904;59.926;30.404;2023-01-28T23:53:11;0.28;;;0.17;;
77738;SDS011;66904;59.926;30.404;2023-01-28T23:58:39;0.43;;;0.20;;
